createdAt,value
2022-07-26T00:01:48.745Z,96529.94
2022-07-26T00:04:17.714Z,96538.78
2022-07-26T00:06:45.512Z,96536.63
2022-07-26T00:09:13.211Z,96535.31
2022-07-26T00:11:41.031Z,96534.00
2022-07-26T00:14:10.239Z,96529.72
2022-07-26T00:16:39.303Z,96537.75
2022-07-26T00:19:08.520Z,96539.34
2022-07-26T00:21:40.615Z,96537.22
2022-07-26T00:24:09.652Z,96548.41
2022-07-26T00:26:37.510Z,96538.56
2022-07-26T00:29:06.143Z,96546.28
2022-07-26T00:31:34.376Z,96547.88
2022-07-26T00:34:01.925Z,96541.75
2022-07-26T00:36:29.771Z,96542.53
2022-07-26T00:38:58.621Z,96545.75
2022-07-26T00:41:26.224Z,96541.97
2022-07-26T00:43:58.831Z,96538.25
2022-07-26T00:46:26.855Z,96543.59
2022-07-26T00:48:54.992Z,96541.47
2022-07-26T00:51:23.094Z,96542.81
2022-07-26T00:53:51.313Z,96545.47
2022-07-26T00:56:20.196Z,96541.47
2022-07-26T00:58:47.717Z,96546.78
2022-07-26T01:01:15.330Z,96554.53
2022-07-26T01:03:43.007Z,96554.81
2022-07-26T01:06:10.733Z,96552.44
2022-07-26T01:08:38.894Z,96549.25
2022-07-26T01:11:06.652Z,96555.13
2022-07-26T01:13:35.806Z,96547.69
2022-07-26T01:16:04.201Z,96550.88
2022-07-26T01:18:32.013Z,96544.75
2022-07-26T01:21:09.000Z,96538.91
2022-07-26T01:23:43.604Z,96534.66
2022-07-26T01:26:11.306Z,96540.25
2022-07-26T01:28:39.677Z,96537.84
2022-07-26T01:31:08.178Z,96538.38
2022-07-26T01:33:36.064Z,96534.13
2022-07-26T01:36:03.752Z,96529.59
2022-07-26T01:38:31.282Z,96529.84
2022-07-26T01:41:00.197Z,96522.13
2022-07-26T01:43:27.935Z,96526.66
2022-07-26T01:45:55.614Z,96527.75
2022-07-26T01:48:23.286Z,96540.84
2022-07-26T01:50:50.908Z,96540.06
2022-07-26T01:53:18.479Z,96541.09
2022-07-26T01:55:46.000Z,96542.97
2022-07-26T01:58:16.085Z,96542.47
2022-07-26T02:00:43.601Z,96542.19
2022-07-26T02:03:11.187Z,96544.91
2022-07-26T02:05:38.776Z,96550.81
2022-07-26T02:08:06.334Z,96546.00
2022-07-26T02:10:48.736Z,96551.91
2022-07-26T02:13:18.342Z,96561.53
2022-07-26T02:15:45.941Z,96559.41
2022-07-26T02:18:14.057Z,96570.13
2022-07-26T02:20:41.559Z,96568.53
2022-07-26T02:23:09.058Z,96561.34
2022-07-26T02:25:36.694Z,96550.41
2022-07-26T02:28:04.265Z,96548.88
2022-07-26T02:30:33.227Z,96558.44
2022-07-26T02:33:01.296Z,96551.53
2022-07-26T02:35:29.622Z,96553.19
2022-07-26T02:38:01.572Z,96568.09
2022-07-26T02:40:29.312Z,96558.56
2022-07-26T02:42:56.830Z,96570.78
2022-07-26T02:45:24.430Z,96569.19
2022-07-26T02:47:55.558Z,96568.66
2022-07-26T02:50:27.892Z,96573.69
2022-07-26T02:52:55.566Z,96570.78
2022-07-26T02:55:26.110Z,96579.81
2022-07-26T02:57:53.813Z,96583.81
2022-07-26T03:00:23.460Z,96578.22
2022-07-26T03:02:51.378Z,96572.63
2022-07-26T03:05:21.501Z,96580.59
2022-07-26T03:07:49.544Z,96580.88
2022-07-26T03:10:17.286Z,96584.88
2022-07-26T03:12:44.835Z,96588.34
2022-07-26T03:15:12.696Z,96598.72
2022-07-26T03:17:40.422Z,96594.75
2022-07-26T03:20:09.148Z,96596.84
2022-07-26T03:22:38.014Z,96581.16
2022-07-26T03:25:06.542Z,96575.00
2022-07-26T03:27:34.240Z,96580.34
2022-07-26T07:27:42.227Z,96617.69
2022-07-26T09:56:15.982Z,96640.03
2022-07-26T09:58:44.030Z,96630.03
2022-07-26T10:01:11.539Z,96632.59
2022-07-26T10:03:39.119Z,96649.13
2022-07-26T10:06:07.805Z,96647.50
2022-07-26T10:45:28.002Z,96642.75
2022-07-26T10:48:30.569Z,96655.84
2022-07-26T10:51:27.918Z,96647.06
